sensor_id;sensor_type;location;lat;lon;timestamp;P1;durP1;ratioP1;P2;durP2;ratioP2
65665;SDS011;52365;47.464;18.976;2022-09-09T00:00:25;1.60;;;0.80;;
65665;SDS011;52365;47.464;18.976;2022-09-09T00:01:08;1.10;;;0.70;;
65665;SDS011;52365;47.464;18.976;2022-09-09T00:02:05;1.83;;;0.88;;
65665;SDS011;52365;47.464;18.976;2022-09-09T00:03:43;1.05;;;0.75;;
65665;SDS011;52365;47.464;18.976;2022-09-09T00:05:14;1.10;;;0.70;;
65665;SDS011;52365;47.464;18.976;2022-09-09T00:06:08;1.75;;;0.80;;
65665;SDS011;52365;47.464;18.976;2022-09-09T00:07:51;1.95;;;0.90;;
65665;SDS011;52365;47.464;18.976;2022-09-09T00:08:35;0.98;;;0.70;;
65665;SDS011;52365;47.464;18.976;2022-09-09T00:09:17;1.23;;;0.70;;
65665;SDS011;52365;47.464;18.976;2022-09-09T00:10:54;1.70;;;0.90;;
65665;SDS011;52365;47.464;18.976;2022-09-09T00:13:35;1.80;;;0.70;;
65665;SDS011;52365;47.464;18.976;2022-09-09T00:14:21;1.58;;;0.82;;
65665;SDS011;52365;47.464;18.976;2022-09-09T00:15:14;2.83;;;0.90;;
65665;SDS011;52365;47.464;18.976;2022-09-09T00:16:04;1.10;;;0.90;;
65665;SDS011;52365;47.464;18.976;2022-09-09T00:16:51;1.00;;;0.90;;
65665;SDS011;52365;47.464;18.976;2022-09-09T00:18:23;1.60;;;0.90;;
65665;SDS011;52365;47.464;18.976;2022-09-09T00:21:43;1.12;;;0.80;;
65665;SDS011;52365;47.464;18.976;2022-09-09T00:22:25;2.00;;;0.90;;
65665;SDS011;52365;47.464;18.976;2022-09-09T00:24:55;1.37;;;0.80;;
65665;SDS011;52365;47.464;18.976;2022-09-09T00:25:39;1.20;;;0.80;;
65665;SDS011;52365;47.464;18.976;2022-09-09T00:26:35;1.52;;;0.80;;
65665;SDS011;52365;47.464;18.976;2022-09-09T00:27:34;2.45;;;1.00;;
65665;SDS011;52365;47.464;18.976;2022-09-09T00:28:18;1.12;;;0.80;;
65665;SDS011;52365;47.464;18.976;2022-09-09T00:30:39;1.10;;;0.90;;
65665;SDS011;52365;47.464;18.976;2022-09-09T00:31:18;1.20;;;0.80;;
65665;SDS011;52365;47.464;18.976;2022-09-09T00:32:04;2.20;;;0.90;;
65665;SDS011;52365;47.464;18.976;2022-09-09T00:32:48;1.67;;;0.90;;
65665;SDS011;52365;47.464;18.976;2022-09-09T00:33:29;1.83;;;1.00;;
65665;SDS011;52365;47.464;18.976;2022-09-09T00:35:13;3.67;;;1.20;;
65665;SDS011;52365;47.464;18.976;2022-09-09T00:35:54;1.23;;;0.90;;
65665;SDS011;52365;47.464;18.976;2022-09-09T00:36:33;1.90;;;0.93;;
65665;SDS011;52365;47.464;18.976;2022-09-09T00:37:11;1.33;;;1.10;;
65665;SDS011;52365;47.464;18.976;2022-09-09T00:37:47;2.00;;;1.05;;
65665;SDS011;52365;47.464;18.976;2022-09-09T00:38:36;1.20;;;0.90;;
65665;SDS011;52365;47.464;18.976;2022-09-09T00:39:40;1.98;;;1.00;;
65665;SDS011;52365;47.464;18.976;2022-09-09T00:40:31;1.80;;;1.00;;
65665;SDS011;52365;47.464;18.976;2022-09-09T00:41:12;1.42;;;1.00;;
65665;SDS011;52365;47.464;18.976;2022-09-09T00:42:42;1.90;;;1.05;;
65665;SDS011;52365;47.464;18.976;2022-09-09T00:43:26;2.60;;;1.00;;
65665;SDS011;52365;47.464;18.976;2022-09-09T00:44:56;1.40;;;0.90;;
65665;SDS011;52365;47.464;18.976;2022-09-09T00:45:51;1.50;;;1.00;;
65665;SDS011;52365;47.464;18.976;2022-09-09T00:47:02;1.60;;;0.90;;
65665;SDS011;52365;47.464;18.976;2022-09-09T00:47:52;1.73;;;1.02;;
65665;SDS011;52365;47.464;18.976;2022-09-09T00:48:40;1.58;;;1.10;;
65665;SDS011;52365;47.464;18.976;2022-09-09T00:50:27;1.73;;;1.00;;
65665;SDS011;52365;47.464;18.976;2022-09-09T00:51:14;1.70;;;0.98;;
65665;SDS011;52365;47.464;18.976;2022-09-09T00:56:21;2.00;;;1.37;;
65665;SDS011;52365;47.464;18.976;2022-09-09T00:57:28;1.40;;;1.00;;
65665;SDS011;52365;47.464;18.976;2022-09-09T00:58:07;1.90;;;1.10;;
65665;SDS011;52365;47.464;18.976;2022-09-09T00:58:48;2.30;;;1.10;;
65665;SDS011;52365;47.464;18.976;2022-09-09T00:59:48;1.52;;;1.20;;
65665;SDS011;52365;47.464;18.976;2022-09-09T01:00:29;1.60;;;1.10;;
65665;SDS011;52365;47.464;18.976;2022-09-09T01:01:11;3.67;;;1.10;;
65665;SDS011;52365;47.464;18.976;2022-09-09T01:01:48;1.50;;;1.10;;
65665;SDS011;52365;47.464;18.976;2022-09-09T01:03:29;3.08;;;1.10;;
65665;SDS011;52365;47.464;18.976;2022-09-09T01:04:10;1.87;;;1.00;;
65665;SDS011;52365;47.464;18.976;2022-09-09T01:05:07;2.20;;;1.20;;
65665;SDS011;52365;47.464;18.976;2022-09-09T01:06:51;2.10;;;1.02;;
65665;SDS011;52365;47.464;18.976;2022-09-09T01:07:36;1.25;;;1.00;;
65665;SDS011;52365;47.464;18.976;2022-09-09T01:08:57;1.77;;;1.02;;
65665;SDS011;52365;47.464;18.976;2022-09-09T01:10:30;1.40;;;1.05;;
65665;SDS011;52365;47.464;18.976;2022-09-09T01:11:21;2.95;;;1.52;;
65665;SDS011;52365;47.464;18.976;2022-09-09T01:12:03;2.45;;;1.10;;
65665;SDS011;52365;47.464;18.976;2022-09-09T01:12:52;3.00;;;1.23;;
65665;SDS011;52365;47.464;18.976;2022-09-09T01:13:34;2.20;;;1.10;;
65665;SDS011;52365;47.464;18.976;2022-09-09T01:14:34;1.67;;;1.10;;
65665;SDS011;52365;47.464;18.976;2022-09-09T01:15:19;2.08;;;1.20;;
65665;SDS011;52365;47.464;18.976;2022-09-09T01:16:00;1.70;;;1.20;;
65665;SDS011;52365;47.464;18.976;2022-09-09T01:16:39;1.37;;;0.98;;
65665;SDS011;52365;47.464;18.976;2022-09-09T01:18:26;2.03;;;1.05;;
65665;SDS011;52365;47.464;18.976;2022-09-09T01:19:07;1.70;;;1.00;;
65665;SDS011;52365;47.464;18.976;2022-09-09T01:19:57;1.70;;;1.10;;
65665;SDS011;52365;47.464;18.976;2022-09-09T01:21:25;1.60;;;1.20;;
65665;SDS011;52365;47.464;18.976;2022-09-09T01:22:10;1.90;;;1.10;;
65665;SDS011;52365;47.464;18.976;2022-09-09T01:23:14;2.90;;;1.10;;
65665;SDS011;52365;47.464;18.976;2022-09-09T01:24:24;2.97;;;1.05;;
65665;SDS011;52365;47.464;18.976;2022-09-09T01:25:26;2.42;;;1.05;;
65665;SDS011;52365;47.464;18.976;2022-09-09T01:27:00;1.65;;;1.10;;
65665;SDS011;52365;47.464;18.976;2022-09-09T01:27:39;1.37;;;1.00;;
65665;SDS011;52365;47.464;18.976;2022-09-09T01:28:20;1.35;;;1.00;;
65665;SDS011;52365;47.464;18.976;2022-09-09T01:29:00;2.45;;;1.10;;
65665;SDS011;52365;47.464;18.976;2022-09-09T01:29:37;1.33;;;1.00;;
65665;SDS011;52365;47.464;18.976;2022-09-09T01:30:14;1.70;;;1.10;;
65665;SDS011;52365;47.464;18.976;2022-09-09T01:30:53;2.40;;;1.08;;
65665;SDS011;52365;47.464;18.976;2022-09-09T01:31:32;1.35;;;0.90;;
65665;SDS011;52365;47.464;18.976;2022-09-09T01:33:22;1.17;;;0.90;;
65665;SDS011;52365;47.464;18.976;2022-09-09T01:33:58;1.37;;;0.90;;
65665;SDS011;52365;47.464;18.976;2022-09-09T01:34:36;1.92;;;0.90;;
65665;SDS011;52365;47.464;18.976;2022-09-09T01:35:21;1.30;;;0.82;;
65665;SDS011;52365;47.464;18.976;2022-09-09T01:37:26;1.77;;;1.00;;
65665;SDS011;52365;47.464;18.976;2022-09-09T01:38:02;1.40;;;1.02;;
65665;SDS011;52365;47.464;18.976;2022-09-09T01:38:39;1.35;;;1.00;;
65665;SDS011;52365;47.464;18.976;2022-09-09T01:39:16;2.00;;;0.90;;
65665;SDS011;52365;47.464;18.976;2022-09-09T01:39:52;1.40;;;0.90;;
65665;SDS011;52365;47.464;18.976;2022-09-09T01:40:28;1.12;;;0.90;;
65665;SDS011;52365;47.464;18.976;2022-09-09T01:41:04;1.42;;;0.95;;
65665;SDS011;52365;47.464;18.976;2022-09-09T01:41:41;2.05;;;1.00;;
65665;SDS011;52365;47.464;18.976;2022-09-09T01:42:17;1.50;;;1.00;;
65665;SDS011;52365;47.464;18.976;2022-09-09T01:42:53;4.72;;;1.20;;
65665;SDS011;52365;47.464;18.976;2022-09-09T01:43:30;1.75;;;0.90;;
65665;SDS011;52365;47.464;18.976;2022-09-09T01:44:07;1.17;;;0.90;;
65665;SDS011;52365;47.464;18.976;2022-09-09T01:44:43;1.20;;;0.80;;
65665;SDS011;52365;47.464;18.976;2022-09-09T01:45:20;1.05;;;0.85;;
65665;SDS011;52365;47.464;18.976;2022-09-09T01:45:58;1.37;;;0.75;;
65665;SDS011;52365;47.464;18.976;2022-09-09T01:46:36;0.90;;;0.70;;
65665;SDS011;52365;47.464;18.976;2022-09-09T01:47:13;1.92;;;0.80;;
65665;SDS011;52365;47.464;18.976;2022-09-09T01:47:51;2.05;;;0.90;;
65665;SDS011;52365;47.464;18.976;2022-09-09T01:48:28;1.02;;;0.80;;
65665;SDS011;52365;47.464;18.976;2022-09-09T01:49:06;1.05;;;0.70;;
65665;SDS011;52365;47.464;18.976;2022-09-09T01:49:43;1.70;;;0.90;;
65665;SDS011;52365;47.464;18.976;2022-09-09T01:50:20;2.80;;;0.90;;
65665;SDS011;52365;47.464;18.976;2022-09-09T01:50:57;2.00;;;0.68;;
65665;SDS011;52365;47.464;18.976;2022-09-09T01:51:33;1.30;;;0.80;;
65665;SDS011;52365;47.464;18.976;2022-09-09T01:52:10;1.60;;;0.90;;
65665;SDS011;52365;47.464;18.976;2022-09-09T01:52:48;1.37;;;0.70;;
65665;SDS011;52365;47.464;18.976;2022-09-09T01:53:28;1.98;;;0.80;;
65665;SDS011;52365;47.464;18.976;2022-09-09T01:54:04;1.95;;;1.00;;
65665;SDS011;52365;47.464;18.976;2022-09-09T01:54:41;1.53;;;0.90;;
65665;SDS011;52365;47.464;18.976;2022-09-09T01:55:18;1.80;;;0.75;;
65665;SDS011;52365;47.464;18.976;2022-09-09T01:56:10;1.10;;;0.80;;
65665;SDS011;52365;47.464;18.976;2022-09-09T01:58:19;1.20;;;0.82;;
65665;SDS011;52365;47.464;18.976;2022-09-09T01:58:55;1.30;;;0.80;;
65665;SDS011;52365;47.464;18.976;2022-09-09T02:03:56;1.60;;;0.77;;
65665;SDS011;52365;47.464;18.976;2022-09-09T02:04:38;1.10;;;0.70;;
65665;SDS011;52365;47.464;18.976;2022-09-09T02:06:47;3.05;;;0.82;;
65665;SDS011;52365;47.464;18.976;2022-09-09T02:07:42;1.42;;;0.70;;
65665;SDS011;52365;47.464;18.976;2022-09-09T02:08:24;0.93;;;0.68;;
65665;SDS011;52365;47.464;18.976;2022-09-09T02:09:07;1.90;;;0.90;;
65665;SDS011;52365;47.464;18.976;2022-09-09T02:09:50;0.80;;;0.60;;
65665;SDS011;52365;47.464;18.976;2022-09-09T02:11:24;1.30;;;0.75;;
65665;SDS011;52365;47.464;18.976;2022-09-09T02:12:07;1.10;;;0.70;;
65665;SDS011;52365;47.464;18.976;2022-09-09T02:12:49;1.10;;;0.70;;
65665;SDS011;52365;47.464;18.976;2022-09-09T02:13:31;2.25;;;0.80;;
65665;SDS011;52365;47.464;18.976;2022-09-09T02:14:18;1.40;;;0.70;;
65665;SDS011;52365;47.464;18.976;2022-09-09T02:15:03;1.30;;;0.70;;
65665;SDS011;52365;47.464;18.976;2022-09-09T02:17:00;0.80;;;0.60;;
65665;SDS011;52365;47.464;18.976;2022-09-09T02:17:39;1.25;;;0.70;;
65665;SDS011;52365;47.464;18.976;2022-09-09T02:18:18;1.60;;;0.80;;
65665;SDS011;52365;47.464;18.976;2022-09-09T02:19:47;1.30;;;0.62;;
65665;SDS011;52365;47.464;18.976;2022-09-09T02:20:28;1.23;;;0.60;;
65665;SDS011;52365;47.464;18.976;2022-09-09T02:21:09;0.80;;;0.60;;
65665;SDS011;52365;47.464;18.976;2022-09-09T02:21:47;1.10;;;0.60;;
65665;SDS011;52365;47.464;18.976;2022-09-09T02:22:24;3.10;;;0.60;;
65665;SDS011;52365;47.464;18.976;2022-09-09T02:23:03;0.90;;;0.52;;
65665;SDS011;52365;47.464;18.976;2022-09-09T02:23:41;2.30;;;0.60;;
65665;SDS011;52365;47.464;18.976;2022-09-09T02:24:18;0.90;;;0.60;;
65665;SDS011;52365;47.464;18.976;2022-09-09T02:24:54;1.10;;;0.60;;
65665;SDS011;52365;47.464;18.976;2022-09-09T02:25:34;1.73;;;0.60;;
65665;SDS011;52365;47.464;18.976;2022-09-09T02:26:12;0.55;;;0.47;;
65665;SDS011;52365;47.464;18.976;2022-09-09T02:26:55;2.47;;;0.70;;
65665;SDS011;52365;47.464;18.976;2022-09-09T02:27:34;1.50;;;0.60;;
65665;SDS011;52365;47.464;18.976;2022-09-09T02:28:10;3.35;;;0.70;;
65665;SDS011;52365;47.464;18.976;2022-09-09T02:28:50;0.82;;;0.60;;
65665;SDS011;52365;47.464;18.976;2022-09-09T02:29:30;1.30;;;0.70;;
65665;SDS011;52365;47.464;18.976;2022-09-09T02:30:10;1.40;;;0.57;;
65665;SDS011;52365;47.464;18.976;2022-09-09T02:30:47;1.10;;;0.60;;
65665;SDS011;52365;47.464;18.976;2022-09-09T02:31:30;2.67;;;0.60;;
65665;SDS011;52365;47.464;18.976;2022-09-09T02:32:12;0.88;;;0.50;;
65665;SDS011;52365;47.464;18.976;2022-09-09T02:32:52;0.62;;;0.50;;
65665;SDS011;52365;47.464;18.976;2022-09-09T02:33:36;0.90;;;0.60;;
65665;SDS011;52365;47.464;18.976;2022-09-09T02:34:17;1.08;;;0.50;;
65665;SDS011;52365;47.464;18.976;2022-09-09T02:34:57;0.80;;;0.50;;
65665;SDS011;52365;47.464;18.976;2022-09-09T02:35:38;0.52;;;0.40;;
65665;SDS011;52365;47.464;18.976;2022-09-09T02:36:16;0.55;;;0.40;;
65665;SDS011;52365;47.464;18.976;2022-09-09T02:36:53;0.80;;;0.55;;
65665;SDS011;52365;47.464;18.976;2022-09-09T02:37:37;1.40;;;0.60;;
65665;SDS011;52365;47.464;18.976;2022-09-09T02:38:15;0.73;;;0.50;;
65665;SDS011;52365;47.464;18.976;2022-09-09T02:38:52;1.00;;;0.60;;
65665;SDS011;52365;47.464;18.976;2022-09-09T02:39:30;0.80;;;0.50;;
65665;SDS011;52365;47.464;18.976;2022-09-09T02:40:06;1.23;;;0.45;;
65665;SDS011;52365;47.464;18.976;2022-09-09T02:40:45;1.02;;;0.47;;
65665;SDS011;52365;47.464;18.976;2022-09-09T02:41:35;1.80;;;0.70;;
65665;SDS011;52365;47.464;18.976;2022-09-09T02:42:13;1.10;;;0.40;;
65665;SDS011;52365;47.464;18.976;2022-09-09T02:42:50;1.20;;;0.50;;
65665;SDS011;52365;47.464;18.976;2022-09-09T02:43:30;0.95;;;0.70;;
65665;SDS011;52365;47.464;18.976;2022-09-09T02:44:11;1.05;;;0.60;;
65665;SDS011;52365;47.464;18.976;2022-09-09T02:44:48;1.37;;;0.70;;
65665;SDS011;52365;47.464;18.976;2022-09-09T02:45:25;0.70;;;0.60;;
65665;SDS011;52365;47.464;18.976;2022-09-09T02:48:14;2.12;;;0.60;;
65665;SDS011;52365;47.464;18.976;2022-09-09T02:49:06;1.25;;;0.57;;
65665;SDS011;52365;47.464;18.976;2022-09-09T02:49:53;0.90;;;0.55;;
65665;SDS011;52365;47.464;18.976;2022-09-09T02:51:53;2.30;;;0.70;;
65665;SDS011;52365;47.464;18.976;2022-09-09T02:52:34;1.20;;;0.70;;
65665;SDS011;52365;47.464;18.976;2022-09-09T02:53:16;1.33;;;0.70;;
65665;SDS011;52365;47.464;18.976;2022-09-09T02:54:02;0.80;;;0.70;;
65665;SDS011;52365;47.464;18.976;2022-09-09T02:54:46;1.15;;;0.85;;
65665;SDS011;52365;47.464;18.976;2022-09-09T02:56:16;1.23;;;0.65;;
65665;SDS011;52365;47.464;18.976;2022-09-09T02:56:55;1.48;;;0.70;;
65665;SDS011;52365;47.464;18.976;2022-09-09T02:57:37;1.15;;;0.70;;
65665;SDS011;52365;47.464;18.976;2022-09-09T02:58:16;2.50;;;0.80;;
65665;SDS011;52365;47.464;18.976;2022-09-09T02:58:53;1.50;;;0.70;;
65665;SDS011;52365;47.464;18.976;2022-09-09T02:59:30;1.17;;;0.70;;
65665;SDS011;52365;47.464;18.976;2022-09-09T03:00:07;0.85;;;0.70;;
65665;SDS011;52365;47.464;18.976;2022-09-09T03:00:45;1.80;;;0.70;;
65665;SDS011;52365;47.464;18.976;2022-09-09T03:01:23;1.27;;;0.80;;
65665;SDS011;52365;47.464;18.976;2022-09-09T03:01:59;1.73;;;0.68;;
65665;SDS011;52365;47.464;18.976;2022-09-09T03:02:35;1.00;;;0.77;;
65665;SDS011;52365;47.464;18.976;2022-09-09T03:03:11;2.00;;;0.77;;
65665;SDS011;52365;47.464;18.976;2022-09-09T03:03:48;1.77;;;0.80;;
65665;SDS011;52365;47.464;18.976;2022-09-09T03:04:24;2.12;;;0.77;;
65665;SDS011;52365;47.464;18.976;2022-09-09T03:05:00;1.08;;;0.60;;
65665;SDS011;52365;47.464;18.976;2022-09-09T03:05:36;2.20;;;0.90;;
65665;SDS011;52365;47.464;18.976;2022-09-09T03:06:12;2.05;;;0.80;;
65665;SDS011;52365;47.464;18.976;2022-09-09T03:06:50;1.27;;;0.73;;
65665;SDS011;52365;47.464;18.976;2022-09-09T03:07:26;1.17;;;0.80;;
65665;SDS011;52365;47.464;18.976;2022-09-09T03:08:03;1.05;;;0.80;;
65665;SDS011;52365;47.464;18.976;2022-09-09T03:08:39;1.30;;;0.70;;
65665;SDS011;52365;47.464;18.976;2022-09-09T03:09:16;2.42;;;0.90;;
65665;SDS011;52365;47.464;18.976;2022-09-09T03:09:52;1.50;;;0.90;;
65665;SDS011;52365;47.464;18.976;2022-09-09T03:10:29;1.62;;;0.80;;
65665;SDS011;52365;47.464;18.976;2022-09-09T03:11:05;1.30;;;1.00;;
65665;SDS011;52365;47.464;18.976;2022-09-09T03:11:42;1.80;;;0.70;;
65665;SDS011;52365;47.464;18.976;2022-09-09T03:12:19;1.12;;;0.90;;
65665;SDS011;52365;47.464;18.976;2022-09-09T03:12:56;2.22;;;0.80;;
65665;SDS011;52365;47.464;18.976;2022-09-09T03:13:32;1.70;;;0.80;;
65665;SDS011;52365;47.464;18.976;2022-09-09T03:14:09;2.62;;;0.73;;
65665;SDS011;52365;47.464;18.976;2022-09-09T03:14:46;1.52;;;0.82;;
65665;SDS011;52365;47.464;18.976;2022-09-09T03:15:22;2.83;;;0.70;;
65665;SDS011;52365;47.464;18.976;2022-09-09T03:15:59;1.75;;;0.90;;
65665;SDS011;52365;47.464;18.976;2022-09-09T03:16:35;1.00;;;0.90;;
65665;SDS011;52365;47.464;18.976;2022-09-09T03:17:11;1.10;;;0.80;;
65665;SDS011;52365;47.464;18.976;2022-09-09T03:17:47;1.42;;;0.90;;
65665;SDS011;52365;47.464;18.976;2022-09-09T03:18:23;1.55;;;0.75;;
65665;SDS011;52365;47.464;18.976;2022-09-09T03:19:00;1.10;;;0.80;;
65665;SDS011;52365;47.464;18.976;2022-09-09T03:19:36;1.70;;;0.90;;
65665;SDS011;52365;47.464;18.976;2022-09-09T03:20:13;1.20;;;0.82;;
65665;SDS011;52365;47.464;18.976;2022-09-09T03:20:49;0.98;;;0.73;;
65665;SDS011;52365;47.464;18.976;2022-09-09T03:21:26;1.20;;;0.90;;
65665;SDS011;52365;47.464;18.976;2022-09-09T03:22:02;2.00;;;0.80;;
65665;SDS011;52365;47.464;18.976;2022-09-09T03:22:40;1.08;;;0.77;;
65665;SDS011;52365;47.464;18.976;2022-09-09T03:23:16;1.50;;;0.80;;
65665;SDS011;52365;47.464;18.976;2022-09-09T03:23:52;3.70;;;1.08;;
65665;SDS011;52365;47.464;18.976;2022-09-09T03:24:28;1.08;;;0.77;;
65665;SDS011;52365;47.464;18.976;2022-09-09T03:25:05;1.27;;;0.80;;
65665;SDS011;52365;47.464;18.976;2022-09-09T03:25:51;1.65;;;0.90;;
65665;SDS011;52365;47.464;18.976;2022-09-09T03:26:27;1.10;;;0.80;;
65665;SDS011;52365;47.464;18.976;2022-09-09T03:27:03;1.10;;;0.90;;
65665;SDS011;52365;47.464;18.976;2022-09-09T03:27:40;1.00;;;0.80;;
65665;SDS011;52365;47.464;18.976;2022-09-09T03:28:16;1.12;;;0.80;;
65665;SDS011;52365;47.464;18.976;2022-09-09T03:28:52;1.27;;;0.88;;
65665;SDS011;52365;47.464;18.976;2022-09-09T03:29:28;1.42;;;0.80;;
65665;SDS011;52365;47.464;18.976;2022-09-09T03:30:04;2.30;;;0.90;;
65665;SDS011;52365;47.464;18.976;2022-09-09T03:30:41;3.25;;;1.00;;
65665;SDS011;52365;47.464;18.976;2022-09-09T03:31:17;1.40;;;0.80;;
65665;SDS011;52365;47.464;18.976;2022-09-09T03:31:53;1.23;;;0.85;;
65665;SDS011;52365;47.464;18.976;2022-09-09T03:32:29;3.33;;;0.80;;
65665;SDS011;52365;47.464;18.976;2022-09-09T03:33:06;1.20;;;0.80;;
65665;SDS011;52365;47.464;18.976;2022-09-09T03:33:42;1.35;;;0.80;;
65665;SDS011;52365;47.464;18.976;2022-09-09T03:34:19;1.37;;;0.90;;
65665;SDS011;52365;47.464;18.976;2022-09-09T03:34:55;1.10;;;0.80;;
65665;SDS011;52365;47.464;18.976;2022-09-09T03:35:31;2.45;;;0.88;;
65665;SDS011;52365;47.464;18.976;2022-09-09T03:36:07;1.70;;;0.90;;
65665;SDS011;52365;47.464;18.976;2022-09-09T03:36:46;1.73;;;0.88;;
65665;SDS011;52365;47.464;18.976;2022-09-09T03:37:24;1.77;;;0.90;;
65665;SDS011;52365;47.464;18.976;2022-09-09T03:38:00;1.60;;;1.05;;
65665;SDS011;52365;47.464;18.976;2022-09-09T03:38:36;2.40;;;0.90;;
65665;SDS011;52365;47.464;18.976;2022-09-09T03:39:12;1.00;;;0.80;;
65665;SDS011;52365;47.464;18.976;2022-09-09T03:39:49;2.70;;;0.90;;
65665;SDS011;52365;47.464;18.976;2022-09-09T03:40:26;1.45;;;0.85;;
65665;SDS011;52365;47.464;18.976;2022-09-09T03:41:02;2.65;;;1.00;;
65665;SDS011;52365;47.464;18.976;2022-09-09T03:41:39;1.77;;;0.82;;
65665;SDS011;52365;47.464;18.976;2022-09-09T03:42:15;1.30;;;1.00;;
65665;SDS011;52365;47.464;18.976;2022-09-09T03:42:54;1.62;;;0.90;;
65665;SDS011;52365;47.464;18.976;2022-09-09T03:43:30;2.22;;;0.80;;
65665;SDS011;52365;47.464;18.976;2022-09-09T03:44:06;2.12;;;1.00;;
65665;SDS011;52365;47.464;18.976;2022-09-09T03:44:42;1.58;;;1.00;;
65665;SDS011;52365;47.464;18.976;2022-09-09T03:45:21;1.85;;;1.00;;
65665;SDS011;52365;47.464;18.976;2022-09-09T03:45:58;1.48;;;1.10;;
65665;SDS011;52365;47.464;18.976;2022-09-09T03:46:34;2.50;;;0.95;;
65665;SDS011;52365;47.464;18.976;2022-09-09T03:47:10;1.95;;;0.98;;
65665;SDS011;52365;47.464;18.976;2022-09-09T03:47:46;2.40;;;0.90;;
65665;SDS011;52365;47.464;18.976;2022-09-09T03:48:22;2.33;;;1.02;;
65665;SDS011;52365;47.464;18.976;2022-09-09T03:48:58;2.37;;;1.02;;
65665;SDS011;52365;47.464;18.976;2022-09-09T03:49:34;1.37;;;1.00;;
65665;SDS011;52365;47.464;18.976;2022-09-09T03:50:11;1.50;;;0.90;;
65665;SDS011;52365;47.464;18.976;2022-09-09T03:50:48;1.30;;;0.93;;
65665;SDS011;52365;47.464;18.976;2022-09-09T03:51:25;1.77;;;0.90;;
65665;SDS011;52365;47.464;18.976;2022-09-09T03:52:01;1.10;;;0.80;;
65665;SDS011;52365;47.464;18.976;2022-09-09T03:52:38;1.23;;;0.93;;
65665;SDS011;52365;47.464;18.976;2022-09-09T03:53:17;1.30;;;1.10;;
65665;SDS011;52365;47.464;18.976;2022-09-09T03:53:55;1.80;;;0.90;;
65665;SDS011;52365;47.464;18.976;2022-09-09T03:54:33;2.62;;;1.00;;
65665;SDS011;52365;47.464;18.976;2022-09-09T03:55:09;1.60;;;0.98;;
65665;SDS011;52365;47.464;18.976;2022-09-09T03:55:49;1.95;;;1.00;;
65665;SDS011;52365;47.464;18.976;2022-09-09T03:56:30;2.10;;;1.10;;
65665;SDS011;52365;47.464;18.976;2022-09-09T03:57:07;2.30;;;1.10;;
65665;SDS011;52365;47.464;18.976;2022-09-09T03:57:45;1.35;;;0.95;;
65665;SDS011;52365;47.464;18.976;2022-09-09T03:58:22;2.10;;;1.00;;
65665;SDS011;52365;47.464;18.976;2022-09-09T03:59:02;1.20;;;0.90;;
65665;SDS011;52365;47.464;18.976;2022-09-09T03:59:39;1.83;;;0.93;;
65665;SDS011;52365;47.464;18.976;2022-09-09T04:00:15;2.25;;;1.05;;
65665;SDS011;52365;47.464;18.976;2022-09-09T04:00:55;1.67;;;0.90;;
65665;SDS011;52365;47.464;18.976;2022-09-09T04:01:41;3.30;;;1.00;;
65665;SDS011;52365;47.464;18.976;2022-09-09T04:02:17;1.20;;;0.85;;
65665;SDS011;52365;47.464;18.976;2022-09-09T04:02:53;1.70;;;1.10;;
65665;SDS011;52365;47.464;18.976;2022-09-09T04:03:30;1.62;;;1.00;;
65665;SDS011;52365;47.464;18.976;2022-09-09T04:04:07;2.17;;;1.00;;
65665;SDS011;52365;47.464;18.976;2022-09-09T04:04:44;2.70;;;1.02;;
65665;SDS011;52365;47.464;18.976;2022-09-09T04:05:20;1.30;;;1.00;;
65665;SDS011;52365;47.464;18.976;2022-09-09T04:05:56;1.55;;;1.00;;
65665;SDS011;52365;47.464;18.976;2022-09-09T04:06:34;1.80;;;0.90;;
65665;SDS011;52365;47.464;18.976;2022-09-09T04:07:10;1.45;;;0.98;;
65665;SDS011;52365;47.464;18.976;2022-09-09T04:07:47;1.95;;;1.10;;
65665;SDS011;52365;47.464;18.976;2022-09-09T04:08:23;1.42;;;1.00;;
65665;SDS011;52365;47.464;18.976;2022-09-09T04:09:02;1.50;;;0.98;;
65665;SDS011;52365;47.464;18.976;2022-09-09T04:09:38;1.40;;;1.00;;
65665;SDS011;52365;47.464;18.976;2022-09-09T04:10:14;1.67;;;1.10;;
65665;SDS011;52365;47.464;18.976;2022-09-09T04:10:51;2.00;;;1.00;;
65665;SDS011;52365;47.464;18.976;2022-09-09T04:11:27;1.25;;;0.95;;
65665;SDS011;52365;47.464;18.976;2022-09-09T04:12:04;2.30;;;1.00;;
65665;SDS011;52365;47.464;18.976;2022-09-09T04:12:41;2.20;;;1.10;;
65665;SDS011;52365;47.464;18.976;2022-09-09T04:13:18;1.98;;;1.08;;
65665;SDS011;52365;47.464;18.976;2022-09-09T04:13:55;2.15;;;1.00;;
65665;SDS011;52365;47.464;18.976;2022-09-09T04:14:31;1.87;;;1.20;;
65665;SDS011;52365;47.464;18.976;2022-09-09T04:15:07;2.70;;;1.15;;
65665;SDS011;52365;47.464;18.976;2022-09-09T04:15:44;2.30;;;1.20;;
65665;SDS011;52365;47.464;18.976;2022-09-09T04:16:26;1.90;;;0.93;;
65665;SDS011;52365;47.464;18.976;2022-09-09T04:17:02;1.52;;;1.10;;
65665;SDS011;52365;47.464;18.976;2022-09-09T04:17:41;1.77;;;0.98;;
65665;SDS011;52365;47.464;18.976;2022-09-09T04:18:18;2.10;;;1.05;;
65665;SDS011;52365;47.464;18.976;2022-09-09T04:18:55;1.95;;;1.10;;
65665;SDS011;52365;47.464;18.976;2022-09-09T04:19:32;1.73;;;1.00;;
65665;SDS011;52365;47.464;18.976;2022-09-09T04:20:08;2.58;;;1.05;;
65665;SDS011;52365;47.464;18.976;2022-09-09T04:20:47;1.55;;;1.10;;
65665;SDS011;52365;47.464;18.976;2022-09-09T04:21:24;1.67;;;1.20;;
65665;SDS011;52365;47.464;18.976;2022-09-09T04:22:00;2.05;;;1.23;;
65665;SDS011;52365;47.464;18.976;2022-09-09T04:22:36;1.80;;;1.15;;
65665;SDS011;52365;47.464;18.976;2022-09-09T04:23:14;2.17;;;1.10;;
65665;SDS011;52365;47.464;18.976;2022-09-09T04:23:51;3.22;;;1.10;;
65665;SDS011;52365;47.464;18.976;2022-09-09T04:24:27;1.30;;;1.00;;
65665;SDS011;52365;47.464;18.976;2022-09-09T04:25:05;2.83;;;1.10;;
65665;SDS011;52365;47.464;18.976;2022-09-09T04:25:45;1.60;;;1.00;;
65665;SDS011;52365;47.464;18.976;2022-09-09T04:26:22;1.83;;;1.10;;
65665;SDS011;52365;47.464;18.976;2022-09-09T04:26:58;1.30;;;1.05;;
65665;SDS011;52365;47.464;18.976;2022-09-09T04:27:34;1.98;;;1.12;;
65665;SDS011;52365;47.464;18.976;2022-09-09T04:28:10;2.80;;;1.37;;
65665;SDS011;52365;47.464;18.976;2022-09-09T04:28:46;2.08;;;1.27;;
65665;SDS011;52365;47.464;18.976;2022-09-09T04:29:22;1.92;;;1.17;;
65665;SDS011;52365;47.464;18.976;2022-09-09T04:29:58;2.40;;;1.20;;
65665;SDS011;52365;47.464;18.976;2022-09-09T04:30:34;2.17;;;1.20;;
65665;SDS011;52365;47.464;18.976;2022-09-09T04:31:15;2.03;;;1.00;;
65665;SDS011;52365;47.464;18.976;2022-09-09T04:31:54;1.73;;;1.30;;
65665;SDS011;52365;47.464;18.976;2022-09-09T04:32:31;1.42;;;1.17;;
65665;SDS011;52365;47.464;18.976;2022-09-09T04:33:08;1.45;;;1.10;;
65665;SDS011;52365;47.464;18.976;2022-09-09T04:33:45;3.25;;;1.10;;
65665;SDS011;52365;47.464;18.976;2022-09-09T04:34:22;2.40;;;1.30;;
65665;SDS011;52365;47.464;18.976;2022-09-09T04:34:58;2.47;;;1.20;;
65665;SDS011;52365;47.464;18.976;2022-09-09T04:35:34;1.90;;;1.30;;
65665;SDS011;52365;47.464;18.976;2022-09-09T04:36:10;2.25;;;1.20;;
65665;SDS011;52365;47.464;18.976;2022-09-09T04:36:46;1.83;;;1.12;;
65665;SDS011;52365;47.464;18.976;2022-09-09T04:37:22;1.80;;;1.25;;
65665;SDS011;52365;47.464;18.976;2022-09-09T04:38:00;1.92;;;1.20;;
65665;SDS011;52365;47.464;18.976;2022-09-09T04:38:38;2.50;;;1.20;;
65665;SDS011;52365;47.464;18.976;2022-09-09T04:39:14;3.50;;;1.50;;
65665;SDS011;52365;47.464;18.976;2022-09-09T04:39:50;2.33;;;1.30;;
65665;SDS011;52365;47.464;18.976;2022-09-09T04:40:26;1.95;;;1.30;;